EST,Max TemperatureF,Mean TemperatureF,Min TemperatureF,Max Dew PointF,MeanDew PointF,Min DewpointF,Max Humidity, Mean Humidity, Min Humidity, Max Sea Level PressureIn, Mean Sea Level PressureIn, Min Sea Level PressureIn, Max VisibilityMiles, Mean VisibilityMiles, Min VisibilityMiles, Max Wind SpeedMPH, Mean Wind SpeedMPH, Max Gust SpeedMPH,PrecipitationIn, CloudCover, Events, WindDirDegrees
2014-1-1,27,21,15,22,16,10,88,73,57,30.41,30.33,30.19,10,8,2,7,1,10,0.01,6,Snow,288
2014-1-2,26,20,13,21,17,7,92,80,68,30.16,29.92,29.76,10,5,1,12,2,16,0.23,8,Snow,313
2014-1-3,16,8,0,7,-3,-10,79,58,36,30.48,30.17,29.82,10,8,2,20,8,26,0.02,4,Snow,310
2014-1-4,24,11,-3,7,1,-6,83,63,42,30.47,30.36,30.27,10,10,7,18,4,32,0.00,1,,98
2014-1-5,40,23,5,35,20,1,96,75,53,30.28,30.00,29.62,10,6,2,15,4,20,0.14,6,Rain,97
2014-1-6,46,24,2,40,23,-12,100,70,40,30.00,29.61,29.42,10,8,1,33,17,45,0.14,7,Rain,238
2014-1-7,6,1,-5,-7,-14,-19,62,53,44,30.41,30.24,30.01,10,10,10,26,16,36,0.00,2,,262
2014-1-8,20,12,3,7,0,-6,72,58,43,30.56,30.50,30.43,10,10,10,15,5,20,0.00,4,,270
2014-1-9,31,22,12,15,11,8,84,64,43,30.68,30.58,30.51,10,10,9,15,2,22,0.00,3,,123
2014-1-10,35,31,26,31,25,15,89,74,58,30.50,30.35,30.12,10,4,1,15,7,22,0.11,8,Snow,73
2014-1-11,50,42,33,45,38,32,93,87,80,30.10,29.63,29.34,10,4,0,23,7,36,0.30,8,Fog-Rain,99
2014-1-12,44,36,27,32,27,24,85,72,59,30.07,29.83,29.52,10,10,8,20,9,29,T,7,Rain,275
2014-1-13,49,37,24,37,28,23,92,73,53,30.08,29.96,29.78,10,8,3,21,5,31,0.02,4,Rain,72
2014-1-14,45,38,31,41,38,30,100,88,76,29.88,29.75,29.69,10,3,0,13,1,18,0.16,8,Fog-Rain,48
2014-1-15,38,33,28,34,29,21,100,81,61,29.97,29.91,29.85,10,4,0,14,3,17,0.01,8,Fog-Rain-Snow,263
2014-1-16,36,29,21,21,17,15,81,63,44,30.00,29.93,29.87,10,10,10,17,5,23,0.00,4,,267
2014-1-17,38,30,22,28,22,18,92,72,52,29.93,29.89,29.83,10,10,6,14,3,18,0.00,6,,90
2014-1-18,31,24,16,28,19,8,100,73,46,29.95,29.85,29.79,10,5,1,23,10,30,0.04,6,Snow,270
2014-1-19,33,25,16,19,14,8,80,66,51,29.90,29.77,29.66,10,6,1,17,4,22,0.01,7,Snow,268
2014-1-20,38,31,23,27,21,12,81,66,51,29.96,29.70,29.60,10,10,10,20,7,26,T,8,,295
2014-1-21,24,14,3,9,4,-8,73,60,47,30.07,29.99,29.92,10,6,1,16,8,21,0.03,6,Snow,1
2014-1-22,16,8,0,-4,-7,-9,69,55,40,30.08,30.03,29.97,10,10,10,18,6,25,0.00,1,,313
2014-1-23,18,10,2,7,1,-6,86,72,58,30.35,30.18,30.08,10,8,2,15,5,21,T,5,Snow,284
2014-1-24,19,12,5,0,-3,-6,69,54,39,30.45,30.29,29.92,10,10,10,21,10,29,0.00,2,,259
2014-1-25,27,22,16,19,10,-3,84,63,42,29.89,29.50,29.35,10,6,1,23,10,30,0.02,7,Snow,161
2014-1-26,25,18,10,11,4,-5,73,61,49,29.88,29.78,29.65,10,8,1,16,8,29,0.01,6,Snow,242
2014-1-27,31,22,12,21,6,-5,81,54,26,30.17,29.84,29.53,10,9,2,25,12,33,T,6,Snow,290
2014-1-28,14,8,2,0,-8,-10,69,54,38,30.45,30.33,30.19,10,10,9,20,9,25,T,2,,255
2014-1-29,21,10,-2,-2,-7,-9,65,50,34,30.35,30.24,30.15,10,10,10,21,10,25,0.00,0,,274
2014-1-30,28,14,-1,4,0,-5,79,56,32,30.46,30.32,30.12,10,10,10,20,5,30,0.00,0,,70
2014-1-31,31,25,19,19,10,4,69,56,42,30.23,30.14,30.06,10,10,10,12,4,16,0.00,6,,88